Time;durP1;ratioP1;P1;durP2;ratioP2;P2;SDS_P1;SDS_P2;PMS_P1;PMS_P2;Temp;Humidity;BMP_temperature;BMP_pressure;BME280_temperature;BME280_humidity;BME280_pressure;Samples;Min_cycle;Max_cycle;Signal;HPM_P1;HPM_P2
2021/07/24 00:00:21;;;;;;;8.47;7.40;;;;;;;;;;3557057;40;20402;-67
2021/07/24 00:02:47;;;;;;;8.90;7.57;;;;;;;;;;3566863;40;20421;-67
2021/07/24 00:05:15;;;;;;;11.02;7.43;;;;;;;;;;3566100;40;20392;-68
2021/07/24 00:07:41;;;;;;;10.73;7.57;;;;;;;;;;3566580;40;20397;-68
2021/07/24 00:10:08;;;;;;;8.93;7.43;;;;;;;;;;3566346;40;20382;-68
2021/07/24 00:12:34;;;;;;;8.32;7.38;;;;;;;;;;3566495;40;20402;-68
2021/07/24 00:15:00;;;;;;;8.38;7.57;;;;;;;;;;3566622;40;20390;-68
2021/07/24 00:17:26;;;;;;;9.35;8.10;;;;;;;;;;3555363;40;20386;-68
2021/07/24 00:19:52;;;;;;;10.77;7.57;;;;;;;;;;3566465;40;20405;-68
2021/07/24 00:22:20;;;;;;;8.77;7.32;;;;;;;;;;3565434;40;20413;-68
2021/07/24 00:24:46;;;;;;;20.57;9.77;;;;;;;;;;3565764;40;20386;-68
2021/07/24 00:27:13;;;;;;;18.70;8.90;;;;;;;;;;3566394;40;20401;-68
2021/07/24 00:29:39;;;;;;;17.27;10.43;;;;;;;;;;3566347;40;20370;-67
2021/07/24 00:32:06;;;;;;;9.43;7.40;;;;;;;;;;3557330;40;20385;-67
2021/07/24 00:34:32;;;;;;;8.32;7.43;;;;;;;;;;3566317;40;20774;-68
2021/07/24 00:36:58;;;;;;;9.25;7.45;;;;;;;;;;3566416;40;20381;-67
2021/07/24 00:39:26;;;;;;;9.15;7.30;;;;;;;;;;3565108;40;20421;-68
2021/07/24 00:41:56;;;;;;;9.23;7.82;;;;;;;;;;3564827;40;20385;-67
2021/07/24 00:44:24;;;;;;;8.95;7.50;;;;;;;;;;3564059;40;20452;-68
2021/07/24 00:46:51;;;;;;;7.87;7.07;;;;;;;;;;3566133;40;20430;-67
2021/07/24 00:49:17;;;;;;;8.33;7.47;;;;;;;;;;3557079;40;20390;-67
2021/07/24 00:51:46;;;;;;;8.95;7.60;;;;;;;;;;3566318;40;20449;-68
2021/07/24 00:54:12;;;;;;;8.43;7.53;;;;;;;;;;3564477;40;20386;-68
2021/07/24 00:56:41;;;;;;;8.68;7.60;;;;;;;;;;3567369;40;20644;-67
2021/07/24 00:59:07;;;;;;;8.07;7.28;;;;;;;;;;3566277;40;20475;-67
2021/07/24 01:01:33;;;;;;;9.68;7.40;;;;;;;;;;3564264;40;20421;-68
2021/07/24 01:03:59;;;;;;;8.65;7.75;;;;;;;;;;3593736;23;20434;-70
2021/07/24 01:06:25;;;;;;;9.00;7.63;;;;;;;;;;3555916;40;20810;-70
2021/07/24 01:08:52;;;;;;;9.00;7.80;;;;;;;;;;3556004;40;20395;-70
2021/07/24 01:11:18;;;;;;;9.15;7.13;;;;;;;;;;3544920;40;20399;-70
2021/07/24 01:13:46;;;;;;;8.43;7.57;;;;;;;;;;3554249;40;20758;-71
2021/07/24 01:16:12;;;;;;;8.05;7.15;;;;;;;;;;3556629;40;20399;-70
2021/07/24 01:18:39;;;;;;;8.27;7.40;;;;;;;;;;3556609;40;20431;-71
2021/07/24 01:21:06;;;;;;;8.10;7.30;;;;;;;;;;3556501;40;20798;-71
2021/07/24 01:23:33;;;;;;;9.73;7.80;;;;;;;;;;3556804;40;20395;-70
2021/07/24 01:25:59;;;;;;;9.93;7.47;;;;;;;;;;3556568;40;20390;-70
2021/07/24 01:28:27;;;;;;;9.00;7.60;;;;;;;;;;3556421;40;20427;-71
2021/07/24 01:30:54;;;;;;;10.65;7.45;;;;;;;;;;3547491;40;20395;-70
2021/07/24 01:33:20;;;;;;;8.48;7.60;;;;;;;;;;3555507;40;20443;-70
2021/07/24 01:35:47;;;;;;;8.32;7.50;;;;;;;;;;3546148;40;20641;-71
2021/07/24 01:38:13;;;;;;;9.23;7.10;;;;;;;;;;3553706;40;20756;-70
2021/07/24 01:40:40;;;;;;;10.02;8.05;;;;;;;;;;3547364;40;20399;-70
2021/07/24 01:43:07;;;;;;;8.95;7.65;;;;;;;;;;3556216;40;20383;-70
2021/07/24 01:45:33;;;;;;;8.40;7.30;;;;;;;;;;3556405;40;20395;-70
2021/07/24 01:48:01;;;;;;;9.27;7.63;;;;;;;;;;3555439;40;20415;-70
2021/07/24 01:53:12;;;;;;;8.05;7.03;;;;;;;;;;3547096;40;20759;-71
2021/07/24 01:55:40;;;;;;;8.83;7.90;;;;;;;;;;3556518;40;20474;-70
2021/07/24 01:58:08;;;;;;;9.35;7.40;;;;;;;;;;3556735;40;20395;-70
2021/07/24 02:00:35;;;;;;;8.80;7.60;;;;;;;;;;3553812;40;20413;-70
2021/07/24 02:03:07;;;;;;;9.18;7.50;;;;;;;;;;3555377;40;20398;-70
2021/07/24 02:05:40;;;;;;;8.63;7.72;;;;;;;;;;3566605;40;20640;-70
2021/07/24 02:08:07;;;;;;;7.60;6.90;;;;;;;;;;3566467;40;20819;-71
2021/07/24 02:10:33;;;;;;;9.17;7.40;;;;;;;;;;3567634;40;20370;-70
2021/07/24 02:13:00;;;;;;;8.10;7.22;;;;;;;;;;3567608;40;20657;-71
2021/07/24 02:15:27;;;;;;;7.85;7.05;;;;;;;;;;3558619;40;20945;-70
2021/07/24 02:17:53;;;;;;;9.43;7.37;;;;;;;;;;3566062;40;20405;-70
2021/07/24 02:20:21;;;;;;;10.40;7.93;;;;;;;;;;3566179;40;20487;-70
2021/07/24 02:22:48;;;;;;;9.73;7.63;;;;;;;;;;3565411;40;20399;-70
2021/07/24 02:25:14;;;;;;;8.80;7.33;;;;;;;;;;3558130;40;20449;-64
2021/07/24 02:27:43;;;;;;;10.27;7.65;;;;;;;;;;3564938;40;20697;-63
2021/07/24 02:30:10;;;;;;;10.93;7.88;;;;;;;;;;3565642;40;20819;-63
2021/07/24 02:32:37;;;;;;;10.02;7.75;;;;;;;;;;3565976;40;20398;-64
2021/07/24 02:35:04;;;;;;;9.10;8.10;;;;;;;;;;3566772;40;20487;-63
2021/07/24 02:37:30;;;;;;;9.45;7.82;;;;;;;;;;3563197;40;20488;-64
2021/07/24 02:39:56;;;;;;;9.43;7.88;;;;;;;;;;3566677;40;20424;-63
2021/07/24 02:42:23;;;;;;;10.30;7.60;;;;;;;;;;3567446;40;20372;-70
2021/07/24 02:44:49;;;;;;;8.98;7.97;;;;;;;;;;3556614;40;20644;-71
2021/07/24 02:47:15;;;;;;;9.93;7.70;;;;;;;;;;3556138;40;20913;-70
2021/07/24 02:49:44;;;;;;;10.63;7.67;;;;;;;;;;3567512;40;20429;-70
2021/07/24 02:52:10;;;;;;;8.85;7.95;;;;;;;;;;3560004;40;20405;-71
2021/07/24 02:54:36;;;;;;;9.13;7.30;;;;;;;;;;3569650;40;20380;-70
2021/07/24 02:57:03;;;;;;;9.13;7.80;;;;;;;;;;3557404;40;20516;-70
2021/07/24 02:59:29;;;;;;;9.25;7.88;;;;;;;;;;3567388;40;20782;-70
2021/07/24 03:01:55;;;;;;;9.77;8.30;;;;;;;;;;3564252;40;20390;-69
2021/07/24 03:04:21;;;;;;;9.55;8.02;;;;;;;;;;3566832;40;20465;-70
2021/07/24 03:06:49;;;;;;;10.00;7.63;;;;;;;;;;3567009;40;20438;-71
2021/07/24 03:09:16;;;;;;;9.10;8.00;;;;;;;;;;3567067;40;20390;-71
2021/07/24 03:11:42;;;;;;;8.13;7.35;;;;;;;;;;3567566;40;20489;-71
2021/07/24 03:14:08;;;;;;;10.27;7.85;;;;;;;;;;3567433;40;20460;-70
2021/07/24 03:16:34;;;;;;;8.25;7.45;;;;;;;;;;3568197;40;20382;-70
2021/07/24 03:19:01;;;;;;;9.20;7.85;;;;;;;;;;3566730;40;20386;-71
2021/07/24 03:21:27;;;;;;;8.40;7.60;;;;;;;;;;3567152;40;20413;-71
2021/07/24 03:23:55;;;;;;;8.32;7.53;;;;;;;;;;3567473;40;20381;-70
2021/07/24 03:26:21;;;;;;;8.70;7.38;;;;;;;;;;3557533;40;20413;-74
2021/07/24 03:28:47;;;;;;;9.98;7.93;;;;;;;;;;3566973;40;20468;-70
2021/07/24 03:31:13;;;;;;;8.38;7.47;;;;;;;;;;3565937;40;20433;-70
2021/07/24 03:33:40;;;;;;;9.18;7.85;;;;;;;;;;3564612;40;20370;-70
2021/07/24 03:36:06;;;;;;;9.27;7.82;;;;;;;;;;3557851;40;20479;-69
2021/07/24 03:38:32;;;;;;;8.88;7.68;;;;;;;;;;3558101;40;20841;-70
2021/07/24 03:41:03;;;;;;;8.68;7.45;;;;;;;;;;3558384;40;20775;-71
2021/07/24 03:43:30;;;;;;;8.48;7.47;;;;;;;;;;3567222;40;20388;-71
2021/07/24 03:45:56;;;;;;;7.97;7.15;;;;;;;;;;3567005;40;20382;-71
2021/07/24 03:48:22;;;;;;;9.25;7.57;;;;;;;;;;3558065;40;20406;-70
2021/07/24 03:50:48;;;;;;;9.50;7.55;;;;;;;;;;3568797;40;20397;-70
2021/07/24 03:53:14;;;;;;;9.07;8.07;;;;;;;;;;3557643;40;20421;-70
2021/07/24 03:55:41;;;;;;;8.52;7.35;;;;;;;;;;3567883;40;20374;-70
2021/07/24 03:58:08;;;;;;;9.82;7.88;;;;;;;;;;3566892;40;20385;-70
2021/07/24 04:00:40;;;;;;;9.07;7.63;;;;;;;;;;3564621;40;20410;-70
2021/07/24 04:03:06;;;;;;;9.25;7.88;;;;;;;;;;3566742;40;20374;-70
2021/07/24 04:05:33;;;;;;;9.05;7.32;;;;;;;;;;3557570;40;20405;-70
2021/07/24 04:08:00;;;;;;;8.02;6.85;;;;;;;;;;3566665;40;20480;-71
2021/07/24 04:10:26;;;;;;;8.87;7.70;;;;;;;;;;3568999;40;20385;-70
2021/07/24 04:12:54;;;;;;;12.45;8.48;;;;;;;;;;3565039;40;21389;-71
2021/07/24 04:15:22;;;;;;;11.48;8.00;;;;;;;;;;3568011;40;20377;-70
2021/07/24 04:17:48;;;;;;;10.20;8.40;;;;;;;;;;3566422;40;20433;-71
2021/07/24 04:20:15;;;;;;;9.20;8.07;;;;;;;;;;3567120;40;20389;-71
2021/07/24 04:22:41;;;;;;;8.95;8.05;;;;;;;;;;3558893;40;20507;-71
2021/07/24 04:25:08;;;;;;;13.03;9.20;;;;;;;;;;3566150;40;20368;-71
2021/07/24 04:27:34;;;;;;;10.20;8.55;;;;;;;;;;3551982;40;20411;-70
2021/07/24 04:30:00;;;;;;;9.13;8.05;;;;;;;;;;3562685;40;20367;-71
2021/07/24 04:32:28;;;;;;;10.27;8.45;;;;;;;;;;3557559;40;20390;-70
2021/07/24 04:34:54;;;;;;;9.07;8.18;;;;;;;;;;3556608;40;20414;-70
2021/07/24 04:37:21;;;;;;;9.52;8.43;;;;;;;;;;3557692;40;20392;-70
2021/07/24 04:39:47;;;;;;;9.10;8.20;;;;;;;;;;3557428;40;21502;-70
2021/07/24 04:42:13;;;;;;;10.77;8.88;;;;;;;;;;3557437;40;20864;-70
2021/07/24 04:44:39;;;;;;;10.43;9.05;;;;;;;;;;3555547;40;20387;-70
2021/07/24 04:47:05;;;;;;;9.63;8.27;;;;;;;;;;3557664;40;20820;-70
2021/07/24 04:49:33;;;;;;;11.05;8.40;;;;;;;;;;3565013;40;20402;-70
2021/07/24 04:51:59;;;;;;;9.65;8.55;;;;;;;;;;3566800;40;20409;-70
2021/07/24 04:54:26;;;;;;;10.85;8.63;;;;;;;;;;3558735;40;20670;-70
2021/07/24 04:56:52;;;;;;;10.00;8.93;;;;;;;;;;3557871;40;20396;-71
2021/07/24 04:59:18;;;;;;;10.07;8.67;;;;;;;;;;3566686;40;20426;-71
2021/07/24 05:01:44;;;;;;;10.47;8.40;;;;;;;;;;3564669;40;20475;-70
2021/07/24 05:04:11;;;;;;;10.18;9.02;;;;;;;;;;3566749;40;20788;-71
2021/07/24 05:06:38;;;;;;;9.07;7.85;;;;;;;;;;3562629;40;20411;-71
2021/07/24 05:09:08;;;;;;;8.97;8.07;;;;;;;;;;3559038;40;20861;-70
2021/07/24 05:11:34;;;;;;;9.63;8.20;;;;;;;;;;3565220;40;20389;-71
2021/07/24 05:14:01;;;;;;;9.48;8.35;;;;;;;;;;3557424;40;20395;-70
2021/07/24 05:16:27;;;;;;;8.82;7.93;;;;;;;;;;3557220;40;20386;-70
2021/07/24 05:18:54;;;;;;;9.30;8.32;;;;;;;;;;3566590;40;20747;-70
2021/07/24 05:21:20;;;;;;;9.20;8.15;;;;;;;;;;3564595;40;20399;-70
2021/07/24 05:23:47;;;;;;;10.20;8.10;;;;;;;;;;3564746;40;20771;-70
2021/07/24 05:26:14;;;;;;;10.50;8.57;;;;;;;;;;3557213;40;20389;-70
2021/07/24 05:28:40;;;;;;;13.60;9.40;;;;;;;;;;3566327;40;20769;-70
2021/07/24 05:31:14;;;;;;;11.57;9.38;;;;;;;;;;3566238;40;20392;-70
2021/07/24 05:33:40;;;;;;;9.10;8.13;;;;;;;;;;3566563;40;20377;-70
2021/07/24 05:36:06;;;;;;;9.73;8.37;;;;;;;;;;3557064;40;20401;-70
2021/07/24 05:38:32;;;;;;;12.40;9.13;;;;;;;;;;3565402;40;20433;-71
2021/07/24 05:41:02;;;;;;;9.37;8.40;;;;;;;;;;3556928;40;20463;-71
2021/07/24 05:43:28;;;;;;;8.95;8.00;;;;;;;;;;3566902;40;20392;-70
2021/07/24 05:45:54;;;;;;;9.13;8.13;;;;;;;;;;3569192;40;20423;-71
2021/07/24 05:48:20;;;;;;;10.50;7.95;;;;;;;;;;3568235;40;20763;-70
2021/07/24 05:50:46;;;;;;;8.60;7.78;;;;;;;;;;3569253;40;20378;-70
2021/07/24 05:53:13;;;;;;;11.02;8.02;;;;;;;;;;3567610;40;20385;-71
2021/07/24 05:55:39;;;;;;;9.45;8.48;;;;;;;;;;3559405;40;20650;-70
2021/07/24 05:58:08;;;;;;;10.10;7.95;;;;;;;;;;3558857;40;20759;-70
2021/07/24 06:00:33;;;;;;;9.13;8.05;;;24.70;99.90;;;;;;3567564;40;20827;-71
2021/07/24 06:03:00;;;;;;;8.60;7.80;;;;;;;;;;3559494;40;20452;-71
2021/07/24 06:05:26;;;;;;;8.93;7.73;;;;;;;;;;3568948;40;20413;-70
2021/07/24 06:07:52;;;;;;;8.10;7.30;;;;;;;;;;3560241;40;20779;-70
2021/07/24 06:10:18;;;;;;;8.97;7.83;;;;;;;;;;3567569;40;20400;-70
2021/07/24 06:12:46;;;;;;;8.53;7.67;;;;;;;;;;3567545;40;20774;-70
2021/07/24 06:15:14;;;;;;;10.13;8.10;;;;;;;;;;3567639;40;20444;-70
2021/07/24 06:17:40;;;;;;;12.25;8.43;;;;;;;;;;3558592;40;20445;-70
2021/07/24 06:20:06;;;;;;;10.95;9.20;;;;;;;;;;3558501;40;20404;-70
2021/07/24 06:22:33;;;;;;;10.43;8.90;;;;;;;;;;3571055;40;20378;-70
2021/07/24 06:24:59;;;;;;;15.25;9.90;;;;;;;;;;3569996;40;20386;-70
2021/07/24 06:27:26;;;;;;;9.40;8.40;;;;;;;;;;3565658;40;20472;-69
2021/07/24 06:29:52;;;;;;;11.35;9.30;;;;;;;;;;3566287;40;20398;-70
2021/07/24 06:32:19;;;;;;;9.52;8.48;;;;;;;;;;3565989;40;20447;-70
2021/07/24 06:34:46;;;;;;;15.00;9.75;;;;;;;;;;3567074;40;20397;-70
2021/07/24 06:37:12;;;;;;;9.85;8.82;;;;;;;;;;3564954;40;20847;-70
2021/07/24 06:39:40;;;;;;;11.03;8.83;;;;;;;;;;3566352;40;20398;-71
2021/07/24 06:42:06;;;;;;;12.85;8.70;;;;;;;;;;3564032;40;20768;-70
2021/07/24 06:44:32;;;;;;;10.18;9.07;;;;;;;;;;3566402;40;20389;-70
2021/07/24 06:46:58;;;;;;;10.95;8.48;;;;;;;;;;3564579;40;20381;-70
2021/07/24 06:49:26;;;;;;;11.65;8.43;;;;;;;;;;3564988;40;20386;-70
2021/07/24 06:51:52;;;;;;;11.18;8.15;;;;;;;;;;3563872;40;20433;-70
2021/07/24 06:54:18;;;;;;;14.50;9.55;;;24.50;99.90;;;;;;3566632;40;20425;-69
2021/07/24 06:56:44;;;;;;;13.70;8.90;;;;;;;;;;3566497;40;20402;-70
2021/07/24 06:59:10;;;;;;;10.63;7.93;;;;;;;;;;3565379;40;20456;-69
2021/07/24 07:01:36;;;;;;;11.70;7.57;;;;;;;;;;3564451;40;20404;-70
2021/07/24 07:04:06;;;;;;;10.23;8.52;;;;;;;;;;3562918;40;20424;-70
2021/07/24 07:06:34;;;;;;;9.27;8.25;;;;;;;;;;3555269;40;20708;-70
2021/07/24 07:09:00;;;;;;;9.35;8.38;;;;;;;;;;3565076;40;20412;-69
2021/07/24 07:11:27;;;;;;;9.70;8.65;;;;;;;;;;3565151;40;20389;-70
2021/07/24 07:13:54;;;;;;;9.23;8.32;;;;;;;;;;3549414;40;20420;-70
2021/07/24 07:16:20;;;;;;;10.73;9.00;;;;;;;;;;3565385;40;20386;-70
2021/07/24 07:18:46;;;;;;;8.90;8.10;;;;;;;;;;3566740;40;20387;-70
2021/07/24 07:21:12;;;;;;;10.40;8.40;;;;;;;;;;3563200;40;20526;-71
2021/07/24 07:23:40;;;;;;;9.57;8.43;;;;;;;;;;3563757;40;20833;-71
2021/07/24 07:26:06;;;;;;;9.60;8.23;;;;;;;;;;3557571;40;20413;-71
2021/07/24 07:28:32;;;;;;;9.63;8.63;;;;;;;;;;3530325;40;20418;-70
2021/07/24 07:30:58;;;;;;;11.00;8.70;;;;;;;;;;3553977;40;20745;-70
2021/07/24 07:33:25;;;;;;;10.35;9.25;;;;;;;;;;3555028;40;20395;-70
2021/07/24 07:35:51;;;;;;;10.02;8.88;;;;;;;;;;3547029;40;20772;-71
2021/07/24 07:38:17;;;;;;;9.13;8.20;;;;;;;;;;3557037;40;20812;-70
2021/07/24 07:40:45;;;;;;;12.80;9.98;;;;;;;;;;3548088;40;20407;-70
2021/07/24 07:43:11;;;;;;;10.35;9.18;;;;;;;;;;3557046;40;20792;-71
2021/07/24 07:45:38;;;;;;;14.25;10.30;;;;;;;;;;3557033;40;20461;-70
2021/07/24 07:48:04;;;;;;;12.07;9.98;;;;;;;;;;3538386;40;20423;-70
2021/07/24 07:50:31;;;;;;;10.25;8.70;;;;;;;;;;3556231;40;20376;-70
2021/07/24 07:52:57;;;;;;;12.68;10.05;;;;;;;;;;3556940;40;20421;-71
2021/07/24 07:55:23;;;;;;;11.25;10.15;;;;;;;;;;3548101;40;20399;-71
2021/07/24 07:57:51;;;;;;;12.88;10.93;;;;;;;;;;3547072;40;20408;-70
2021/07/24 08:00:17;;;;;;;13.55;12.15;;;;;;;;;;3546911;40;20430;-72
2021/07/24 08:02:43;;;;;;;13.68;12.13;;;;;;;;;;3549082;40;20395;-70
2021/07/24 08:05:10;;;;;;;14.77;12.82;;;;;;;;;;3557118;40;20422;-71
2021/07/24 08:07:36;;;;;;;18.95;15.13;;;;;;;;;;3547571;40;20405;-71
2021/07/24 08:10:02;;;;;;;18.50;16.50;;;;;;;;;;3557130;40;20765;-71
2021/07/24 08:12:28;;;;;;;19.23;16.23;;;;;;;;;;3557036;40;20398;-70
2021/07/24 08:14:57;;;;;;;20.50;16.40;;;;;;;;;;3557205;40;20376;-70
2021/07/24 08:17:24;;;;;;;17.08;14.82;;;;;;;;;;3547996;40;20407;-70
2021/07/24 08:19:50;;;;;;;16.80;14.32;;;;;;;;;;3557046;40;20394;-70
2021/07/24 08:22:16;;;;;;;19.98;16.40;;;;;;;;;;3557355;40;20382;-70
2021/07/24 08:24:42;;;;;;;17.65;15.45;;;;;;;;;;3554488;40;20470;-71
2021/07/24 08:27:09;;;;;;;16.25;14.32;;;;;;;;;;3555025;40;20394;-70
2021/07/24 08:29:35;;;;;;;17.52;15.48;;;;;;;;;;3547590;40;20407;-70
2021/07/24 08:32:03;;;;;;;18.55;16.38;;;;;;;;;;3556045;40;20653;-71
2021/07/24 08:34:29;;;;;;;20.05;15.57;;;;;;;;;;3547254;40;20652;-70
2021/07/24 08:36:55;;;;;;;17.83;14.35;;;;;;;;;;3547738;40;20388;-71
2021/07/24 08:39:21;;;;;;;19.17;16.23;;;;;;;;;;3547870;40;20400;-71
2021/07/24 08:41:47;;;;;;;17.98;15.38;;;;;;;;;;3547638;40;20411;-70
2021/07/24 08:44:14;;;;;;;15.88;14.20;;;;;;;;;;3557031;40;20784;-71
2021/07/24 08:46:42;;;;;;;17.35;15.38;;;;;;;;;;3548098;40;20473;-70
2021/07/24 08:49:10;;;;;;;18.27;15.35;;;;;;;;;;3557146;40;20693;-71
2021/07/24 08:51:37;;;;;;;18.90;16.77;;;;;;;;;;3557122;40;20752;-70
2021/07/24 08:54:04;;;;;;;19.58;16.70;;;;;;;;;;3556891;40;20395;-71
2021/07/24 08:56:33;;;;;;;19.48;16.90;;;;;;;;;;3555021;40;20758;-70
2021/07/24 08:59:00;;;;;;;20.77;15.73;;;;;;;;;;3556782;40;20379;-70
2021/07/24 09:01:26;;;;;;;22.77;18.67;;;;;;;;;;3556794;40;20406;-71
2021/07/24 09:03:53;;;;;;;19.02;15.82;;;;;;;;;;3554797;40;20505;-70
2021/07/24 09:06:22;;;;;;;20.02;16.83;;;25.60;99.90;;;;;;3554807;40;20379;-69
2021/07/24 09:08:49;;;;;;;19.85;15.85;;;;;;;;;;3555455;40;20379;-70
2021/07/24 09:11:15;;;;;;;20.60;18.40;;;;;;;;;;3555442;40;20375;-70
2021/07/24 09:13:42;;;;;;;19.23;16.20;;;;;;;;;;3552652;40;20469;-71
2021/07/24 09:16:08;;;;;;;21.98;18.02;;;;;;;;;;3554962;40;20407;-70
2021/07/24 09:18:35;;;;;;;19.90;17.90;;;;;;;;;;3544010;40;20485;-70
2021/07/24 09:21:01;;;;;;;19.83;17.25;;;;;;;;;;3554258;40;20561;-70
2021/07/24 09:23:29;;;;;;;20.00;16.90;;;;;;;;;;3548394;40;20415;-70
2021/07/24 09:25:56;;;;;;;18.90;17.02;;;;;;;;;;3555669;40;20426;-70
2021/07/24 09:28:22;;;;;;;21.90;17.65;;;;;;;;;;3552398;40;20391;-70
2021/07/24 09:30:48;;;;;;;20.10;17.63;;;;;;;;;;3550369;40;20402;-70
2021/07/24 09:33:15;;;;;;;19.25;16.10;;;;;;;;;;3544391;40;20407;-70
2021/07/24 09:35:42;;;;;;;21.88;16.88;;;;;;;;;;3542279;40;20410;-69
2021/07/24 09:38:14;;;;;;;19.70;16.73;;;;;;;;;;3556771;40;20426;-70
2021/07/24 09:40:43;;;;;;;19.13;17.08;;;;;;;;;;3550512;40;20401;-70
2021/07/24 09:43:28;;;;;;;20.25;16.73;;;;;;;;;;3557696;40;20447;-70
2021/07/24 09:46:07;;;;;;;19.20;15.13;;;;;;;;;;3558540;40;20392;-71
2021/07/24 09:48:33;;;;;;;21.63;15.00;;;;;;;;;;3559258;40;20377;-70
2021/07/24 09:50:59;;;;;;;19.60;16.05;;;;;;;;;;3558196;40;20394;-70
2021/07/24 09:53:34;;;;;;;24.95;17.80;;;27.90;99.90;;;;;;3549261;40;20403;-70
2021/07/24 09:56:02;;;;;;;47.05;19.63;;;29.10;99.00;;;;;;3558561;40;20405;-69
2021/07/24 09:58:28;;;;;;;24.80;18.73;;;28.80;99.20;;;;;;3559190;40;20419;-70
2021/07/24 10:01:01;;;;;;;18.05;16.15;;;29.00;99.70;;;;;;3550097;40;20427;-70
2021/07/24 10:03:28;;;;;;;19.10;16.48;;;;;;;;;;3548404;40;20397;-69
2021/07/24 10:05:56;;;;;;;19.02;16.70;;;;;;;;;;3557670;40;20788;-70
2021/07/24 10:08:22;;;;;;;19.77;17.60;;;;;;;;;;3548981;40;20414;-70
2021/07/24 10:10:51;;;;;;;18.58;15.85;;;;;;;;;;3558949;40;20398;-70
2021/07/24 10:13:18;;;;;;;18.83;15.52;;;;;;;;;;3559210;40;20642;-70
2021/07/24 10:15:45;;;;;;;19.70;17.55;;;;;;;;;;3558093;40;20411;-69
2021/07/24 10:18:12;;;;;;;18.48;15.95;;;;;;;;;;3558272;40;20807;-70
2021/07/24 10:20:39;;;;;;;18.30;15.63;;;;;;;;;;3559486;40;20398;-70
2021/07/24 10:23:05;;;;;;;17.90;16.15;;;;;;;;;;3557978;40;20412;-70
2021/07/24 10:25:49;;;;;;;16.80;14.50;;;;;;;;;;3560918;40;20425;-68
2021/07/24 10:28:20;;;;;;;17.15;15.30;;;;;;;;;;3559164;40;20440;-71
2021/07/24 10:30:49;;;;;;;15.68;13.65;;;;;;;;;;3556765;40;20364;-70
2021/07/24 10:33:16;;;;;;;16.87;14.17;;;;;;;;;;3560872;40;20693;-68
2021/07/24 10:35:43;;;;;;;18.55;14.45;;;;;;;;;;3561421;40;20389;-70
2021/07/24 10:38:29;;;;;;;16.13;13.13;;;;;;;;;;3562730;40;20414;-70
2021/07/24 10:40:55;;;;;;;14.45;13.05;;;;;;;;;;3560021;40;20675;-70
2021/07/24 10:43:36;;;;;;;13.18;11.95;;;;;;;;;;3560929;40;20388;-70
2021/07/24 10:46:04;;;;;;;13.85;12.35;;;;;;;;;;3543298;40;20486;-70
2021/07/24 10:48:43;;;;;;;14.20;12.37;;;;;;;;;;3551723;40;20397;-69
2021/07/24 10:51:16;;;;;;;14.03;11.20;;;;;;;;;;3561026;40;20768;-70
2021/07/24 10:54:01;;;;;;;15.15;11.80;;;;;;;;;;3559296;40;20391;-70
2021/07/24 10:56:37;;;;;;;11.85;10.57;;;;;;;;;;3560077;40;20375;-70
2021/07/24 10:59:20;;;;;;;10.67;9.57;;;;;;;;;;3559904;40;20485;-70
2021/07/24 11:01:48;;;;;;;13.98;10.13;;;;;;;;;;3559144;40;20863;-70
2021/07/24 11:04:33;;;;;;;16.25;10.63;;;;;;;;;;3559180;40;20475;-70
2021/07/24 11:09:40;;;;;;;16.58;10.52;;;;;;;;;;3560417;40;20751;-70
2021/07/24 11:12:07;;;;;;;13.13;10.35;;;;;;;;;;3561770;40;20401;-70
2021/07/24 11:14:54;;;;;;;11.63;9.88;;;;;;;;;;3559871;40;20391;-70
2021/07/24 11:17:22;;;;;;;10.95;9.02;;;;;;;;;;3560413;40;20418;-69
2021/07/24 11:20:08;;;;;;;12.80;9.82;;;;;;;;;;3559428;40;20496;-69
2021/07/24 11:22:37;;;;;;;12.15;10.73;;;;;;;;;;3559740;40;20385;-70
2021/07/24 11:25:22;;;;;;;13.63;9.60;;;;;;;;;;3558732;40;20425;-70
2021/07/24 11:27:48;;;;;;;9.50;7.57;;;;;;;;;;3558657;40;20643;-69
2021/07/24 11:30:16;;;;;;;8.95;7.47;;;;;;;;;;3560459;40;20388;-69
2021/07/24 11:32:45;;;;;;;12.18;9.80;;;;;;;;;;3560114;40;20453;-69
2021/07/24 11:35:12;;;;;;;11.53;10.33;;;;;;;;;;3550650;40;20453;-69
2021/07/24 11:37:39;;;;;;;11.57;10.47;;;;;;;;;;3560861;40;20386;-69
2021/07/24 11:40:07;;;;;;;12.50;11.02;;;;;;;;;;3561520;40;20439;-69
2021/07/24 11:42:33;;;;;;;12.85;11.45;;;;;;;;;;3559375;40;20387;-70
2021/07/24 11:44:59;;;;;;;16.45;12.15;;;;;;;;;;3550827;40;20702;-69
2021/07/24 11:47:25;;;;;;;14.17;11.07;;;;;;;;;;3559198;40;20395;-69
2021/07/24 11:49:54;;;;;;;14.35;11.60;;;;;;;;;;3558656;40;20415;-69
2021/07/24 11:52:22;;;;;;;14.30;10.80;;;;;;;;;;3548109;40;20393;-69
2021/07/24 11:54:50;;;;;;;13.55;11.23;;;;;;;;;;3559262;40;20413;-69
2021/07/24 11:57:26;;;;;;;10.40;9.02;;;;;;;;;;3560261;40;20393;-69
2021/07/24 11:59:53;;;;;;;10.55;9.27;;;;;;;;;;3558593;40;20383;-70
2021/07/24 12:02:19;;;;;;;12.27;8.95;;;;;;;;;;3556290;40;20679;-70
2021/07/24 12:04:48;;;;;;;11.20;9.60;;;;;;;;;;3556879;40;20455;-70
2021/07/24 12:07:16;;;;;;;11.73;10.52;;;;;;;;;;3556253;40;20375;-70
2021/07/24 12:09:44;;;;;;;13.70;12.20;;;;;;;;;;3554690;40;20387;-71
2021/07/24 12:12:10;;;;;;;13.03;11.17;;;;;;;;;;3557167;40;20427;-71
2021/07/24 12:14:36;;;;;;;12.87;11.40;;;;;;;;;;3557195;40;20644;-70
2021/07/24 12:17:04;;;;;;;13.70;11.27;;;;;;;;;;3557186;40;20384;-72
2021/07/24 12:19:35;;;;;;;11.18;10.00;;;;;;;;;;3556954;40;20399;-70
2021/07/24 12:22:11;;;;;;;11.27;10.10;;;;;;;;;;3557006;40;20379;-71
2021/07/24 12:24:38;;;;;;;9.93;8.93;;;;;;;;;;3547520;40;20399;-71
2021/07/24 12:27:06;;;;;;;10.98;9.75;;;;;;;;;;3547651;40;20399;-70
2021/07/24 12:29:32;;;;;;;14.80;10.75;;;;;;;;;;3547361;40;20757;-70
2021/07/24 12:31:58;;;;;;;23.67;14.45;;;;;;;;;;3547765;40;20398;-70
2021/07/24 12:34:25;;;;;;;15.65;12.50;;;;;;;;;;3556882;40;20775;-69
2021/07/24 12:36:52;;;;;;;13.97;10.10;;;;;;;;;;3547974;40;20451;-70
2021/07/24 12:39:19;;;;;;;9.18;8.27;;;;;;;;;;3556938;40;20761;-69
2021/07/24 12:41:58;;;;;;;9.32;7.47;;;;;;;;;;3556730;40;20394;-69
2021/07/24 12:44:24;;;;;;;9.30;7.63;;;;;;;;;;3555020;40;21042;-70
2021/07/24 12:47:05;;;;;;;9.82;7.65;;;;;;;;;;3556803;40;20378;-70
2021/07/24 12:49:35;;;;;;;7.63;6.20;;;;;;;;;;3546643;40;20678;-70
2021/07/24 12:52:22;;;;;;;8.40;6.37;;;;;;;;;;3556722;40;20384;-70
2021/07/24 12:55:01;;;;;;;10.23;5.95;;;;;;;;;;3554701;40;20751;-69
2021/07/24 12:57:29;;;;;;;8.48;5.68;;;;;;;;;;3554015;40;20383;-71
2021/07/24 12:59:56;;;;;;;8.07;5.80;;;;;;;;;;3553058;40;20413;-70
2021/07/24 13:02:22;;;;;;;7.22;5.85;;;;;;;;;;3556985;40;20633;-71
2021/07/24 13:04:52;;;;;;;6.13;5.23;;;;;;;;;;3546730;40;20418;-70
2021/07/24 13:07:18;;;;;;;6.43;5.80;;;;;;;;;;3547176;40;20463;-70
2021/07/24 13:09:44;;;;;;;6.93;6.05;;;;;;;;;;3546725;40;20391;-69
2021/07/24 13:12:11;;;;;;;7.13;5.57;;;;;;;;;;3556994;40;20376;-70
2021/07/24 13:14:38;;;;;;;10.10;6.95;;;;;;;;;;3562711;40;20386;-70
2021/07/24 13:17:05;;;;;;;7.65;6.07;;;;;;;;;;3556506;40;20395;-70
2021/07/24 13:19:34;;;;;;;9.00;6.20;;;;;;;;;;3541286;40;20398;-70
2021/07/24 13:22:00;;;;;;;8.93;6.30;;;;;;;;;;3546392;40;20415;-70
2021/07/24 13:24:29;;;;;;;7.82;6.60;;;;;;;;;;3553041;40;20752;-70
2021/07/24 13:29:43;;;;;;;6.80;5.40;;;;;;;;;;3515861;40;20422;-71
2021/07/24 13:32:10;;;;;;;9.27;6.57;;;29.00;98.30;;;;;;3550350;40;20415;-70
2021/07/24 13:34:36;;;;;;;8.93;5.60;;;23.50;99.90;;;;;;3555442;40;20390;-71
2021/07/24 13:37:02;;;;;;;7.85;5.82;;;23.30;99.90;;;;;;3554365;40;20641;-70
2021/07/24 13:39:29;;;;;;;6.00;5.40;;;23.30;99.90;;;;;;3548671;40;20404;-69
2021/07/24 13:41:54;;;;;;;5.15;4.03;;;23.30;99.90;;;;;;3546410;40;20673;-70
2021/07/24 13:44:21;;;;;;;6.33;5.43;;;;;;;;;;3546443;40;20415;-70
2021/07/24 13:46:48;;;;;;;5.87;5.00;;;;;;;;;;3546794;40;20411;-70
2021/07/24 13:49:14;;;;;;;6.22;5.25;;;;;;;;;;3537458;40;20666;-69
2021/07/24 13:51:41;;;;;;;5.57;4.88;;;;;;;;;;3554535;40;20522;-70
2021/07/24 13:54:08;;;;;;;5.68;4.63;;;;;;;;;;3556270;40;20410;-70
2021/07/24 13:56:34;;;;;;;5.40;4.80;;;;;;;;;;3547271;40;20391;-69
2021/07/24 13:59:01;;;;;;;7.18;5.05;;;;;;;;;;3548898;40;20787;-69
2021/07/24 14:01:27;;;;;;;6.05;5.15;;;;;;;;;;3556124;40;20387;-69
2021/07/24 14:03:55;;;;;;;5.90;5.30;;;;;;;;;;3555061;40;20423;-70
2021/07/24 14:06:21;;;;;;;7.18;5.60;;;;;;;;;;3555564;40;20392;-70
2021/07/24 14:08:47;;;;;;;8.23;5.85;;;;;;;;;;3556587;40;20399;-70
2021/07/24 14:11:14;;;;;;;7.00;5.50;;;;;;;;;;3557973;40;20481;-70
2021/07/24 14:13:40;;;;;;;6.32;5.00;;;;;;;;;;3557920;40;20752;-70
2021/07/24 14:16:10;;;;;;;7.63;5.78;;;;;;;;;;3555331;40;20383;-70
2021/07/24 14:18:36;;;;;;;7.20;5.97;;;;;;;;;;3556175;40;20367;-70
2021/07/24 14:21:04;;;;;;;8.52;6.45;;;;;;;;;;3556618;40;20403;-70
2021/07/24 14:23:30;;;;;;;7.60;5.90;;;;;;;;;;3557699;40;20749;-70
2021/07/24 14:26:02;;;;;;;5.87;5.20;;;;;;;;;;3556333;40;20465;-70
2021/07/24 14:28:29;;;;;;;8.65;7.30;;;;;;;;;;3556760;40;20768;-75
2021/07/24 14:30:55;;;;;;;8.80;7.65;;;;;;;;;;3557760;40;20501;-71
2021/07/24 14:33:21;;;;;;;7.95;7.22;;;;;;;;;;3545449;40;20704;-72
2021/07/24 14:35:47;;;;;;;7.72;6.55;;;;;;;;;;3557704;40;20406;-71
2021/07/24 14:38:15;;;;;;;6.80;6.10;;;;;;;;;;3557980;40;20648;-71